Ocean Majesty — CQSC — position and weather

sailwx.info

Track history (hours):
 
Tides and Currents Weather Stations Pressure Air Temp Water Temp Dewpoint Dewpoint Depression Visibility Wind Speed Wind Dir Waves Ship Positions

Ocean Majesty

Last reported at 2016-Sep-25 21:19 UTC. Time now 2016-Sep-28 10:14 UTC.
Position N 44°27' E 013°42'.

Length 136 m; draft 6.3 m.

Type: Passenger vessel. MMSI: 255717000.

Date/timePositionNaut miles runAvg speedWind from/ knotsBaromVisibWave heightAir tempDewpointWater temp
2016-Sep-25 21:19N 44°27' E 013°42'6316.7
2016-Sep-25 17:33N 45°16' E 012°47'1616.1
2016-Sep-25 16:33N 45°25' E 012°27'6 6.4
2016-Sep-25 15:33N 45°26' E 012°18'0 0.1
2016-Sep-25 14:34N 45°26' E 012°18'0 0.0
2016-Sep-25 12:31N 45°26' E 012°18'0 0.0
2016-Sep-25 11:34N 45°26' E 012°18'0 0.0
2016-Sep-25 10:34N 45°26' E 012°18'0 0.0
2016-Sep-25 09:30N 45°26' E 012°18'0 0.0
2016-Sep-25 07:33N 45°26' E 012°18'23 7.8
2016-Sep-25 04:33N 45°11' E 012°44'6215.3
2016-Sep-25 00:29N 44°28' E 013°48'22810.9
2016-Sep-24 03:33N 42°23' E 018°10'1414.0
2016-Sep-24 02:33N 42°10' E 018°16'353 9.3
2016-Sep-22 12:32N 37°56' E 023°38'0 0.0
2016-Sep-22 04:32N 37°56' E 023°38'0 0.0
2016-Sep-22 03:32N 37°56' E 023°38'14 4.7
2016-Sep-22 00:33N 37°43' E 023°44'151 3.7
2016-Sep-20 07:33N 40°11' E 024°23'16313.6
2016-Sep-19 19:33N 37°30' E 023°49'1716.7
2016-Sep-19 18:33N 37°23' E 023°30'3014.3
2016-Sep-19 16:27N 37°28' E 022°52'7 3.8
2016-Sep-19 14:30N 37°34' E 022°48'0 0.0
2016-Sep-19 13:30N 37°34' E 022°48'0 0.0
2016-Sep-19 12:30N 37°34' E 022°48'0 0.0
2016-Sep-19 11:33N 37°34' E 022°48'0 0.0
2016-Sep-19 09:30N 37°34' E 022°48'0 0.0
2016-Sep-19 07:30N 37°34' E 022°48'0 0.0
2016-Sep-19 06:33N 37°34' E 022°48'37 6.1
2016-Sep-19 00:33N 36°60' E 023°04'38511.0
2016-Sep-17 13:33N 38°25' E 015°10'10 8.3
2016-Sep-17 12:22N 38°28' E 014°58'0 0.0
2016-Sep-17 10:28N 38°28' E 014°58'0 0.0
2016-Sep-17 09:28N 38°28' E 014°58'0 0.0
2016-Sep-17 08:28N 38°28' E 014°58'0 0.0
2016-Sep-17 07:25N 38°28' E 014°58'0 0.0
2016-Sep-17 05:32N 38°28' E 014°58'1111.1
2016-Sep-17 04:33N 38°35' E 015°09'12411.1
2016-Sep-16 17:21N 40°33' E 014°17'  
Track history (hours):
 
Tides and Currents Weather Stations Pressure Air Temp Water Temp Dewpoint Dewpoint Depression Visibility Wind Speed Wind Dir Waves Ship Positions

Ocean Majesty

Last reported at 2016-Sep-25 21:19 UTC. Time now 2016-Sep-28 10:14 UTC.
Position N 44°27' E 013°42'.

Length 136 m; draft 6.3 m.

Type: Passenger vessel. MMSI: 255717000.

Date/timePositionNaut miles runAvg speedWind from/ knotsBaromVisibWave heightAir tempDewpointWater temp
2016-Sep-25 21:19N 44°27' E 013°42'6316.7
2016-Sep-25 17:33N 45°16' E 012°47'1616.1
2016-Sep-25 16:33N 45°25' E 012°27'6 6.4
2016-Sep-25 15:33N 45°26' E 012°18'0 0.1
2016-Sep-25 14:34N 45°26' E 012°18'0 0.0
2016-Sep-25 12:31N 45°26' E 012°18'0 0.0
2016-Sep-25 11:34N 45°26' E 012°18'0 0.0
2016-Sep-25 10:34N 45°26' E 012°18'0 0.0
2016-Sep-25 09:30N 45°26' E 012°18'0 0.0
2016-Sep-25 07:33N 45°26' E 012°18'23 7.8
2016-Sep-25 04:33N 45°11' E 012°44'6215.3
2016-Sep-25 00:29N 44°28' E 013°48'22810.9
2016-Sep-24 03:33N 42°23' E 018°10'1414.0
2016-Sep-24 02:33N 42°10' E 018°16'353 9.3
2016-Sep-22 12:32N 37°56' E 023°38'0 0.0
2016-Sep-22 04:32N 37°56' E 023°38'0 0.0
2016-Sep-22 03:32N 37°56' E 023°38'14 4.7
2016-Sep-22 00:33N 37°43' E 023°44'151 3.7
2016-Sep-20 07:33N 40°11' E 024°23'16313.6
2016-Sep-19 19:33N 37°30' E 023°49'1716.7
2016-Sep-19 18:33N 37°23' E 023°30'3014.3
2016-Sep-19 16:27N 37°28' E 022°52'7 3.8
2016-Sep-19 14:30N 37°34' E 022°48'0 0.0
2016-Sep-19 13:30N 37°34' E 022°48'0 0.0
2016-Sep-19 12:30N 37°34' E 022°48'0 0.0
2016-Sep-19 11:33N 37°34' E 022°48'0 0.0
2016-Sep-19 09:30N 37°34' E 022°48'0 0.0
2016-Sep-19 07:30N 37°34' E 022°48'0 0.0
2016-Sep-19 06:33N 37°34' E 022°48'37 6.1
2016-Sep-19 00:33N 36°60' E 023°04'38511.0
2016-Sep-17 13:33N 38°25' E 015°10'10 8.3
2016-Sep-17 12:22N 38°28' E 014°58'0 0.0
2016-Sep-17 10:28N 38°28' E 014°58'0 0.0
2016-Sep-17 09:28N 38°28' E 014°58'0 0.0
2016-Sep-17 08:28N 38°28' E 014°58'0 0.0
2016-Sep-17 07:25N 38°28' E 014°58'0 0.0
2016-Sep-17 05:32N 38°28' E 014°58'1111.1
2016-Sep-17 04:33N 38°35' E 015°09'12411.1
2016-Sep-16 17:21N 40°33' E 014°17'  

Dump ship's entire track history